Time;durP1;ratioP1;P1;durP2;ratioP2;P2;SDS_P1;SDS_P2;PMS_P1;PMS_P2;Temp;Humidity;BMP_temperature;BMP_pressure;BME280_temperature;BME280_humidity;BME280_pressure;Samples;Min_cycle;Max_cycle;Signal;HPM_P1;HPM_P2
2023/05/25 00:00:19;;;;;;;18.45;12.77;;;13.40;1.00;;;;;;10321857;28;20249;-78
2023/05/25 00:05:40;;;;;;;15.27;11.48;;;13.40;1.00;;;;;;10321748;28;20192;-76
2023/05/25 00:11:01;;;;;;;19.20;13.57;;;13.40;1.00;;;;;;10278778;28;20204;-76
2023/05/25 00:16:22;;;;;;;19.23;13.88;;;13.40;1.00;;;;;;10287593;28;20224;-80
2023/05/25 00:21:47;;;;;;;16.52;13.30;;;13.50;1.00;;;;;;10299502;28;20208;-81
2023/05/25 00:27:08;;;;;;;19.52;13.68;;;13.50;1.00;;;;;;10312515;28;20204;-76
2023/05/25 00:32:29;;;;;;;22.08;15.05;;;13.50;1.00;;;;;;10317205;28;20207;-77
2023/05/25 00:37:51;;;;;;;18.15;14.43;;;13.50;1.00;;;;;;10331371;28;20250;-78
2023/05/25 00:43:12;;;;;;;23.50;13.98;;;13.50;1.00;;;;;;10363079;28;20197;-77
2023/05/25 00:48:33;;;;;;;20.75;12.10;;;13.40;1.00;;;;;;10337599;28;20447;-77
2023/05/25 00:53:54;;;;;;;16.17;12.63;;;13.30;1.00;;;;;;10354233;28;20357;-84
2023/05/25 00:59:22;;;;;;;18.38;12.25;;;13.30;1.00;;;;;;10346367;28;20510;-82
2023/05/25 01:04:48;;;;;;;15.10;11.05;;;13.20;1.00;;;;;;10320690;28;20361;-82
2023/05/25 01:10:10;;;;;;;13.63;10.32;;;13.20;1.00;;;;;;10318115;28;20223;-77
2023/05/25 01:15:32;;;;;;;13.05;10.55;;;13.10;1.00;;;;;;10319885;28;20199;-75
2023/05/25 01:21:16;;;;;;;14.93;9.85;;;13.00;1.00;;;;;;10292253;28;20234;-74
2023/05/25 01:27:07;;;;;;;15.85;9.10;;;12.90;1.00;;;;;;10332160;28;20296;-85
2023/05/25 01:32:31;;;;;;;11.32;8.73;;;12.90;1.00;;;;;;10307789;28;20196;-75
2023/05/25 01:37:53;;;;;;;13.27;8.40;;;12.90;1.00;;;;;;10319782;28;20229;-79
2023/05/25 01:43:15;;;;;;;16.92;8.73;;;12.90;1.00;;;;;;10308113;28;20390;-83
2023/05/25 01:48:56;;;;;;;14.20;8.70;;;13.00;1.00;;;;;;10341067;28;20236;-76
2023/05/25 01:54:19;;;;;;;12.65;7.90;;;12.80;1.00;;;;;;10359729;28;20215;-76
2023/05/25 01:59:44;;;;;;;10.25;7.95;;;12.80;1.00;;;;;;10339244;28;20315;-79
2023/05/25 02:05:06;;;;;;;14.10;8.18;;;12.80;1.00;;;;;;10331696;28;20191;-85
2023/05/25 02:10:27;;;;;;;10.60;7.25;;;12.70;1.00;;;;;;10334716;28;20246;-81
2023/05/25 02:15:48;;;;;;;11.07;7.10;;;12.70;1.00;;;;;;10318972;28;20240;-74
2023/05/25 02:21:12;;;;;;;13.65;7.18;;;12.80;1.00;;;;;;10326846;28;20235;-76
2023/05/25 02:26:33;;;;;;;13.18;7.20;;;12.70;1.00;;;;;;10316237;28;20202;-78
2023/05/25 02:31:55;;;;;;;8.20;6.03;;;12.70;1.00;;;;;;10317423;28;20196;-79
2023/05/25 02:37:16;;;;;;;11.07;5.93;;;12.70;1.00;;;;;;10315839;28;20290;-83
2023/05/25 02:42:37;;;;;;;12.15;6.90;;;12.60;1.00;;;;;;10317408;28;20250;-76
2023/05/25 02:47:59;;;;;;;10.73;6.60;;;12.70;1.00;;;;;;10316363;28;20216;-75
2023/05/25 02:53:21;;;;;;;11.85;7.72;;;12.60;1.00;;;;;;10333292;28;20211;-75
2023/05/25 02:58:42;;;;;;;11.95;7.28;;;12.50;1.00;;;;;;10321133;28;20289;-74
2023/05/25 03:04:10;;;;;;;16.95;7.50;;;12.50;1.00;;;;;;10317063;28;20210;-81
2023/05/25 03:09:56;;;;;;;8.93;5.88;;;12.50;1.00;;;;;;10315014;28;20229;-75
2023/05/25 03:15:18;;;;;;;12.30;6.40;;;12.50;1.00;;;;;;10315167;28;20230;-74
2023/05/25 03:20:40;;;;;;;10.25;6.57;;;12.50;1.00;;;;;;10313610;28;20239;-80
2023/05/25 03:26:02;;;;;;;14.63;6.65;;;12.50;1.00;;;;;;10314474;28;20507;-76
2023/05/25 03:31:25;;;;;;;10.57;6.22;;;12.60;1.00;;;;;;10328122;28;20199;-75
2023/05/25 03:36:48;;;;;;;10.80;5.57;;;12.60;1.00;;;;;;10326525;28;20213;-77
2023/05/25 03:42:10;;;;;;;12.35;5.93;;;12.60;1.00;;;;;;10302995;28;20553;-77
2023/05/25 03:47:32;;;;;;;11.93;6.32;;;12.60;1.00;;;;;;10313416;28;20235;-81
2023/05/25 03:52:53;;;;;;;8.15;5.50;;;12.70;1.00;;;;;;10313914;28;20207;-84
2023/05/25 03:58:40;;;;;;;11.55;6.25;;;12.70;1.00;;;;;;10312709;28;20230;-91
2023/05/25 04:04:02;;;;;;;13.82;6.20;;;12.70;1.00;;;;;;10315290;28;20194;-75
2023/05/25 04:09:22;;;;;;;10.70;6.10;;;12.70;1.00;;;;;;10314100;28;20205;-82
2023/05/25 04:14:44;;;;;;;13.00;6.80;;;12.80;1.00;;;;;;10314541;28;20271;-76
2023/05/25 04:20:10;;;;;;;12.05;6.00;;;12.80;1.00;;;;;;10315552;28;20268;-77
2023/05/25 04:25:31;;;;;;;14.15;6.25;;;12.90;1.00;;;;;;10274107;28;20193;-75
2023/05/25 04:30:55;;;;;;;12.45;6.53;;;12.90;1.00;;;;;;10305200;28;20211;-81
2023/05/25 04:36:41;;;;;;;16.30;6.93;;;13.00;1.00;;;;;;10320695;28;20202;-76
2023/05/25 04:42:05;;;;;;;13.18;7.43;;;13.00;1.00;;;;;;10309305;28;20514;-77
2023/05/25 04:47:28;;;;;;;10.75;6.47;;;13.10;1.00;;;;;;10286978;28;20200;-78
2023/05/25 04:52:49;;;;;;;8.18;6.30;;;13.20;1.00;;;;;;10305880;28;20211;-74
2023/05/25 04:58:12;;;;;;;17.95;6.90;;;13.20;1.00;;;;;;10333031;28;20381;-78
2023/05/25 05:03:35;;;;;;;12.80;6.32;;;13.40;1.00;;;;;;10333681;28;20288;-79
2023/05/25 05:08:57;;;;;;;10.93;6.95;;;13.50;1.00;;;;;;10318950;28;20366;-79
2023/05/25 05:14:18;;;;;;;10.50;6.07;;;13.60;1.00;;;;;;10322383;28;20424;-79
2023/05/25 05:19:40;;;;;;;11.57;7.20;;;13.60;1.00;;;;;;10319955;28;20297;-75
2023/05/25 05:25:03;;;;;;;9.07;6.97;;;13.80;99.90;;;;;;10332736;28;20272;-77
2023/05/25 05:30:25;;;;;;;16.05;7.45;;;13.90;99.90;;;;;;10320701;28;20297;-79
2023/05/25 05:35:47;;;;;;;10.25;6.65;;;14.00;99.90;;;;;;10319953;28;20192;-77
2023/05/25 05:41:13;;;;;;;11.20;6.53;;;14.40;99.90;;;;;;10325667;28;20228;-73
2023/05/25 05:46:39;;;;;;;8.90;6.00;;;14.30;99.90;;;;;;10317711;28;20374;-82
2023/05/25 05:52:00;;;;;;;8.52;6.00;;;14.50;1.00;;;;;;10318198;28;20239;-84
2023/05/25 05:57:21;;;;;;;9.63;5.32;;;14.60;1.00;;;;;;10323926;28;20276;-80
2023/05/25 06:02:43;;;;;;;10.70;6.78;;;14.80;1.00;;;;;;10322317;28;20240;-76
2023/05/25 06:08:10;;;;;;;9.65;6.05;;;14.90;1.00;;;;;;10318308;28;20202;-83
2023/05/25 06:13:32;;;;;;;10.23;6.15;;;15.10;99.90;;;;;;10319940;28;20193;-88
2023/05/25 06:18:53;;;;;;;8.00;4.75;;;15.30;1.00;;;;;;10306459;28;20269;-85
2023/05/25 06:24:14;;;;;;;7.15;4.90;;;15.60;1.00;;;;;;10319890;28;20284;-91
2023/05/25 06:29:37;;;;;;;11.35;6.03;;;15.90;99.90;;;;;;10302868;28;20255;-78
2023/05/25 06:34:58;;;;;;;9.57;4.82;;;16.30;1.00;;;;;;10306647;28;20553;-80
2023/05/25 06:40:21;;;;;;;5.80;4.80;;;16.80;99.90;;;;;;10305779;28;20264;-76
2023/05/25 06:45:44;;;;;;;12.50;5.07;;;;;;;;;;10316342;28;20394;-90
2023/05/25 06:51:06;;;;;;;6.72;4.18;;;;;;;;;;10301469;28;20204;-75
2023/05/25 06:56:27;;;;;;;8.73;4.88;;;18.30;1.00;;;;;;10317257;28;20206;-79
2023/05/25 07:01:49;;;;;;;7.35;4.45;;;18.80;99.00;;;;;;10316011;28;20242;-77
2023/05/25 07:07:11;;;;;;;7.28;4.57;;;19.60;99.90;;;;;;10314344;28;20473;-80
2023/05/25 07:12:32;;;;;;;8.25;4.40;;;;;;;;;;10316313;28;20201;-76
2023/05/25 07:17:56;;;;;;;9.32;4.47;;;20.10;1.00;;;;;;10293314;28;20552;-76
2023/05/25 07:23:17;;;;;;;7.37;4.13;;;20.50;1.00;;;;;;10334251;28;20430;-76
2023/05/25 07:28:38;;;;;;;9.63;4.45;;;20.60;1.00;;;;;;10333401;28;20201;-77
2023/05/25 07:33:59;;;;;;;6.88;4.00;;;20.70;99.90;;;;;;10344533;28;20508;-76
2023/05/25 07:39:20;;;;;;;8.07;4.13;;;20.70;1.00;;;;;;10350603;28;20235;-78
2023/05/25 07:44:41;;;;;;;4.57;3.58;;;20.80;13.90;;;;;;10334062;28;20241;-77
2023/05/25 07:50:03;;;;;;;6.75;3.92;;;20.90;1.00;;;;;;10338750;28;20212;-75
2023/05/25 07:55:25;;;;;;;4.28;3.53;;;20.50;1.00;;;;;;10319561;28;20270;-77
2023/05/25 08:00:48;;;;;;;14.27;4.30;;;20.50;1.00;;;;;;10332329;28;20299;-75
2023/05/25 08:06:10;;;;;;;10.20;4.93;;;21.10;1.00;;;;;;10324522;28;20202;-78
2023/05/25 08:11:31;;;;;;;7.78;4.47;;;21.90;22.00;;;;;;10320997;28;20426;-81
2023/05/25 08:16:52;;;;;;;6.95;3.53;;;22.80;1.00;;;;;;10361291;28;20240;-76
2023/05/25 08:22:13;;;;;;;5.25;3.67;;;22.80;1.00;;;;;;10346601;28;20233;-76
2023/05/25 08:27:35;;;;;;;7.85;3.90;;;22.90;1.00;;;;;;10287611;28;20187;-85
2023/05/25 08:32:56;;;;;;;3.80;3.00;;;22.60;1.00;;;;;;10320292;28;20281;-78
2023/05/25 08:38:17;;;;;;;8.52;3.50;;;22.00;1.00;;;;;;10318573;28;20281;-81
2023/05/25 08:43:38;;;;;;;5.38;3.50;;;;;;;;;;10282652;28;20286;-79
2023/05/25 08:49:13;;;;;;;5.18;3.97;;;21.90;1.00;;;;;;10290849;28;20214;-79
2023/05/25 08:54:36;;;;;;;5.72;3.05;;;22.30;1.00;;;;;;10305588;28;20223;-78
2023/05/25 09:00:09;;;;;;;7.28;3.72;;;23.00;1.00;;;;;;10298489;28;20324;-80
2023/05/25 09:05:30;;;;;;;8.27;3.83;;;23.20;1.00;;;;;;10323626;28;20187;-75
2023/05/25 09:10:51;;;;;;;5.45;3.50;;;23.20;1.00;;;;;;10334073;28;20293;-79
2023/05/25 09:16:13;;;;;;;5.68;3.38;;;23.10;1.00;;;;;;10348331;28;20191;-80
2023/05/25 09:21:35;;;;;;;10.10;4.13;;;22.60;1.00;;;;;;10330535;28;20233;-78
2023/05/25 09:26:56;;;;;;;5.68;3.60;;;22.40;1.00;;;;;;10338095;28;20198;-78
2023/05/25 09:32:18;;;;;;;4.95;3.67;;;22.00;1.00;;;;;;10304622;28;20207;-82
2023/05/25 09:37:41;;;;;;;7.85;3.60;;;22.50;1.00;;;;;;10335078;28;20204;-79
2023/05/25 09:43:03;;;;;;;6.18;3.45;;;23.20;1.00;;;;;;10292886;28;20294;-76
2023/05/25 09:48:24;;;;;;;5.47;3.47;;;23.80;1.00;;;;;;10329205;28;20509;-79
2023/05/25 09:53:45;;;;;;;6.55;3.55;;;23.80;1.00;;;;;;10307253;28;20580;-79
2023/05/25 09:59:06;;;;;;;5.10;3.58;;;23.80;1.00;;;;;;10312294;28;20549;-77
2023/05/25 10:04:27;;;;;;;4.95;3.60;;;23.80;1.00;;;;;;10368336;28;20232;-79
2023/05/25 10:09:52;;;;;;;3.65;3.00;;;23.50;1.00;;;;;;10340568;28;20271;-80
2023/05/25 10:15:14;;;;;;;3.85;3.45;;;24.10;1.00;;;;;;10360080;28;20585;-79
2023/05/25 10:20:36;;;;;;;5.00;3.22;;;23.80;99.90;;;;;;10316718;28;20226;-77
2023/05/25 10:26:02;;;;;;;6.55;3.20;;;23.00;99.90;;;;;;10314784;28;20190;-76
2023/05/25 10:31:26;;;;;;;9.05;6.20;;;22.70;1.00;;;;;;10313638;28;20513;-78
2023/05/25 10:36:48;;;;;;;4.13;3.72;;;23.00;1.00;;;;;;10294908;28;20234;-78
2023/05/25 10:42:10;;;;;;;7.22;3.72;;;23.60;1.00;;;;;;10291216;28;20293;-78
2023/05/25 10:47:32;;;;;;;8.57;5.22;;;23.60;22.20;;;;;;10272069;28;20222;-79
2023/05/25 10:53:12;;;;;;;4.78;3.78;;;24.20;1.00;;;;;;10277296;28;20233;-78
2023/05/25 10:58:33;;;;;;;9.80;3.78;;;24.60;99.90;;;;;;10270639;29;20226;-80
2023/05/25 11:03:55;;;;;;;7.38;3.33;;;;;;;;;;10344959;28;20241;-80
2023/05/25 11:09:29;;;;;;;7.10;3.72;;;25.10;99.90;;;;;;10320669;28;20229;-82
2023/05/25 11:15:16;;;;;;;5.00;3.55;;;24.40;99.90;;;;;;10327813;28;20355;-83
2023/05/25 11:20:38;;;;;;;9.57;4.60;;;;;;;;;;10334938;28;20229;-80
2023/05/25 11:26:05;;;;;;;5.63;3.10;;;23.80;1.00;;;;;;10294279;28;20226;-80
2023/05/25 11:31:35;;;;;;;5.70;3.17;;;24.50;99.90;;;;;;10323240;28;20236;-79
2023/05/25 11:37:00;;;;;;;5.10;3.67;;;24.30;99.90;;;;;;10300986;28;20210;-84
2023/05/25 11:42:25;;;;;;;6.38;3.53;;;24.20;99.90;;;;;;10270484;28;20261;-80
2023/05/25 11:47:46;;;;;;;5.95;3.08;;;24.30;99.90;;;;;;10310084;28;20218;-83
2023/05/25 11:53:09;;;;;;;3.83;3.03;;;23.60;99.90;;;;;;10277245;28;20220;-82
2023/05/25 11:58:34;;;;;;;3.83;3.22;;;23.60;99.90;;;;;;10275888;28;20286;-78
2023/05/25 12:03:55;;;;;;;4.43;3.30;;;24.30;99.90;;;;;;10294761;28;20313;-76
2023/05/25 12:09:21;;;;;;;5.90;3.40;;;24.80;99.90;;;;;;10310117;28;20261;-83
2023/05/25 12:14:50;;;;;;;5.93;3.15;;;;;;;;;;10323661;28;20207;-79
2023/05/25 12:20:13;;;;;;;4.10;3.08;;;23.30;1.00;;;;;;10332318;28;20226;-80
2023/05/25 12:25:36;;;;;;;6.28;3.67;;;22.80;99.90;;;;;;10271231;28;20203;-83
2023/05/25 12:31:20;;;;;;;6.45;3.28;;;;;;;;;;10277922;28;20203;-83
2023/05/25 12:36:42;;;;;;;6.40;3.50;;;;;;;;;;10332076;28;20209;-75
2023/05/25 12:42:03;;;;;;;7.68;3.75;;;;;;;;;;10292536;28;20223;-77
2023/05/25 13:04:59;;;;;;;15.60;3.65;;;22.60;1.00;;;;;;10310337;28;20254;-82
2023/05/25 13:10:21;;;;;;;2.90;2.60;;;22.90;1.00;;;;;;10316148;28;20210;-78
2023/05/25 13:15:43;;;;;;;8.80;2.75;;;22.70;1.00;;;;;;10314474;28;20202;-83
2023/05/25 13:21:05;;;;;;;14.45;3.05;;;22.60;1.00;;;;;;10313262;28;20265;-76
2023/05/25 13:31:46;;;;;;;4.15;2.85;;;22.60;1.00;;;;;;10329177;28;20509;-77
2023/05/25 13:53:47;;;;;;;3.08;2.33;;;22.60;1.00;;;;;;10039716;23;20260;-77
2023/05/25 13:59:09;;;;;;;5.90;2.60;;;22.40;1.00;;;;;;9961236;29;20239;-77
2023/05/25 14:04:30;;;;;;;5.43;2.60;;;22.10;99.90;;;;;;10009747;29;20210;-82
2023/05/25 14:09:52;;;;;;;6.53;3.05;;;22.10;1.00;;;;;;10019614;29;20671;-80
2023/05/25 14:15:12;;;;;;;6.13;2.33;;;21.80;1.00;;;;;;10023206;29;20500;-78
2023/05/25 14:20:35;;;;;;;3.90;2.67;;;21.50;1.00;;;;;;10004210;29;20223;-85
2023/05/25 14:25:57;;;;;;;12.82;4.53;;;21.10;1.00;;;;;;10004841;29;20203;-76
2023/05/25 14:31:18;;;;;;;6.45;3.45;;;21.10;1.00;;;;;;10027878;29;20286;-78
2023/05/25 14:36:40;;;;;;;7.28;2.75;;;21.20;1.00;;;;;;10003760;29;20295;-87
2023/05/25 14:42:02;;;;;;;6.00;3.13;;;21.40;1.00;;;;;;10031014;29;20481;-83
2023/05/25 14:47:23;;;;;;;11.43;2.65;;;21.40;1.00;;;;;;10017881;29;20238;-79
2023/05/25 14:52:45;;;;;;;19.63;3.00;;;21.30;1.00;;;;;;10008895;29;20491;-87
2023/05/25 14:58:06;;;;;;;6.95;3.13;;;21.30;1.00;;;;;;10016692;29;20215;-84
2023/05/25 15:03:27;;;;;;;10.07;3.47;;;21.20;1.00;;;;;;10016368;29;20232;-77
2023/05/25 15:08:49;;;;;;;4.82;2.40;;;21.10;1.00;;;;;;10051418;29;20191;-82
2023/05/25 15:14:10;;;;;;;7.70;2.80;;;21.10;1.00;;;;;;10037715;29;20207;-84
2023/05/25 15:19:32;;;;;;;8.88;3.10;;;21.00;1.00;;;;;;10040968;29;20223;-80
2023/05/25 15:24:53;;;;;;;10.88;3.00;;;21.00;1.00;;;;;;9999557;29;20237;-86
2023/05/25 15:30:14;;;;;;;6.10;2.13;;;20.90;1.00;;;;;;10015368;29;20192;-85
2023/05/25 15:35:35;;;;;;;5.82;2.78;;;20.70;1.00;;;;;;10022759;29;20270;-79
2023/05/25 15:40:56;;;;;;;4.50;2.90;;;;;;;;;;10040447;29;20238;-89
2023/05/25 15:46:17;;;;;;;8.10;2.50;;;20.40;1.00;;;;;;10035607;29;20214;-76
2023/05/25 15:51:43;;;;;;;4.72;2.25;;;20.40;1.00;;;;;;10041404;29;20477;-82
2023/05/25 15:57:05;;;;;;;5.05;2.35;;;20.40;1.00;;;;;;9979337;29;20212;-79
2023/05/25 16:02:26;;;;;;;9.52;2.92;;;20.40;1.00;;;;;;9980416;29;20306;-80
2023/05/25 16:07:46;;;;;;;6.38;2.78;;;20.30;1.00;;;;;;10038345;29;20223;-77
2023/05/25 16:13:08;;;;;;;5.25;2.47;;;20.20;1.00;;;;;;10021891;29;20200;-75
2023/05/25 16:18:29;;;;;;;10.27;2.15;;;20.00;1.00;;;;;;10040609;29;20505;-76
2023/05/25 16:23:50;;;;;;;5.88;2.67;;;19.80;99.90;;;;;;10031686;29;20572;-74
2023/05/25 16:29:11;;;;;;;3.17;2.15;;;19.70;48.90;;;;;;10045085;29;20396;-80
2023/05/25 16:34:32;;;;;;;8.40;2.55;;;19.50;38.70;;;;;;10038822;29;20210;-75
2023/05/25 16:39:54;;;;;;;5.20;2.17;;;19.40;1.00;;;;;;10033868;29;20478;-75
2023/05/25 16:45:15;;;;;;;7.47;2.30;;;;;;;;;;10035068;29;20203;-77
2023/05/25 16:50:37;;;;;;;8.88;2.33;;;;;;;;;;10033742;29;20273;-80
2023/05/25 16:55:58;;;;;;;7.20;2.67;;;;;;;;;;10002465;29;20288;-81
2023/05/25 17:01:19;;;;;;;6.72;2.30;;;;;;;;;;10000732;29;20540;-76
2023/05/25 17:06:43;;;;;;;9.52;2.67;;;;;;;;;;10027273;29;20214;-84
2023/05/25 17:12:05;;;;;;;7.28;2.22;;;;;;;;;;10032246;29;20200;-75
2023/05/25 17:17:26;;;;;;;4.28;2.38;;;;;;;;;;10036639;29;20203;-78
2023/05/25 17:45:31;;;;;;;8.80;2.58;;;17.60;99.90;;;;;;10007202;29;20234;-75
2023/05/25 17:50:52;;;;;;;6.22;2.40;;;17.50;99.90;;;;;;10007607;29;20292;-81
2023/05/25 17:56:13;;;;;;;9.32;2.92;;;17.30;99.90;;;;;;9982710;29;20518;-86
2023/05/25 18:01:34;;;;;;;8.93;2.60;;;17.30;1.00;;;;;;9964017;29;20227;-75
2023/05/25 18:06:55;;;;;;;7.45;2.70;;;17.30;1.00;;;;;;9988999;29;20211;-75
2023/05/25 18:12:16;;;;;;;6.00;2.38;;;17.20;1.00;;;;;;9976530;29;20203;-79
2023/05/25 18:17:38;;;;;;;5.72;2.15;;;;;;;;;;9971944;29;20293;-81
2023/05/25 18:23:00;;;;;;;6.32;2.05;;;;;;;;;;9955242;29;20275;-79
2023/05/25 18:28:23;;;;;;;5.20;2.50;;;;;;;;;;9964573;29;20203;-75
2023/05/25 18:33:44;;;;;;;5.20;2.20;;;;;;;;;;10004216;29;20555;-77
2023/05/25 18:39:06;;;;;;;5.07;2.00;;;;;;;;;;10043850;29;20225;-76
2023/05/25 18:44:27;;;;;;;7.45;1.98;;;;;;;;;;10036892;29;20473;-75
2023/05/25 18:49:49;;;;;;;5.57;2.13;;;;;;;;;;10043499;29;20515;-74
2023/05/25 18:55:10;;;;;;;5.70;2.08;;;16.30;1.00;;;;;;10013012;29;20258;-76
2023/05/25 19:00:31;;;;;;;7.63;2.78;;;16.20;1.00;;;;;;10008029;29;20233;-77
2023/05/25 19:05:52;;;;;;;5.00;2.45;;;;;;;;;;10029533;29;20425;-75
2023/05/25 19:11:14;;;;;;;7.15;2.40;;;;;;;;;;10042817;29;20198;-77
2023/05/25 19:16:35;;;;;;;5.25;2.17;;;;;;;;;;9967467;29;20449;-75
2023/05/25 19:21:57;;;;;;;4.90;2.38;;;;;;;;;;9966710;29;20231;-75
2023/05/25 19:27:19;;;;;;;12.35;3.70;;;;;;;;;;10029164;29;20505;-77
2023/05/25 19:32:40;;;;;;;9.63;3.05;;;;;;;;;;9984042;29;20213;-80
2023/05/25 19:38:03;;;;;;;10.85;3.22;;;;;;;;;;10042040;29;20491;-77
2023/05/25 19:43:24;;;;;;;7.90;3.60;;;;;;;;;;10017991;29;20240;-78
2023/05/25 19:48:46;;;;;;;7.70;2.97;;;;;;;;;;10041900;29;20277;-78
2023/05/25 19:54:07;;;;;;;8.68;2.97;;;;;;;;;;10022822;29;20235;-83
2023/05/25 19:59:29;;;;;;;7.15;3.15;;;;;;;;;;10021501;29;20249;-83
2023/05/25 20:04:51;;;;;;;14.52;3.83;;;;;;;;;;10030427;29;20287;-81
2023/05/25 20:10:13;;;;;;;12.60;3.78;;;;;;;;;;10040470;29;20197;-79
2023/05/25 20:15:34;;;;;;;15.57;4.35;;;;;;;;;;10018240;29;20293;-82
2023/05/25 20:20:56;;;;;;;7.95;3.38;;;;;;;;;;10037268;29;20400;-84
2023/05/25 20:26:19;;;;;;;11.60;3.58;;;;;;;;;;10034762;29;20213;-81
2023/05/25 20:31:40;;;;;;;8.07;3.30;;;14.80;99.90;;;;;;9969074;29;20204;-78
2023/05/25 20:37:01;;;;;;;15.23;3.60;;;14.80;1.00;;;;;;10039981;29;20220;-80
2023/05/25 20:42:22;;;;;;;12.32;3.72;;;;;;;;;;10031476;29;20237;-83
2023/05/25 20:54:01;;;;;;;12.95;4.30;;;14.70;28.40;;;;;;9966707;29;20472;-75
2023/05/25 21:04:47;;;;;;;14.52;3.70;;;;;;;;;;9947516;29;20310;-77
2023/05/25 21:10:28;;;;;;;14.18;4.28;;;;;;;;;;9973338;29;20212;-75
2023/05/25 21:15:50;;;;;;;12.80;4.18;;;;;;;;;;9961753;29;20202;-76
2023/05/25 21:21:14;;;;;;;15.85;4.03;;;;;;;;;;9966862;29;20431;-75
2023/05/25 21:26:37;;;;;;;17.67;3.88;;;;;;;;;;9973177;29;20242;-75
2023/05/25 21:37:22;;;;;;;13.93;4.60;;;;;;;;;;9978675;29;20221;-80
2023/05/25 21:43:09;;;;;;;11.75;4.10;;;;;;;;;;10008486;29;20491;-86
2023/05/25 21:48:30;;;;;;;12.68;3.95;;;;;;;;;;10006904;29;20212;-75
2023/05/25 21:53:52;;;;;;;17.48;4.63;;;;;;;;;;9987591;29;20254;-75
2023/05/25 21:59:13;;;;;;;10.35;4.05;;;;;;;;;;10000430;29;20205;-76
2023/05/25 22:04:35;;;;;;;9.60;3.83;;;;;;;;;;10007314;29;20225;-75
2023/05/25 22:09:57;;;;;;;16.75;4.43;;;;;;;;;;9976257;29;20289;-79
2023/05/25 22:15:18;;;;;;;12.57;4.10;;;;;;;;;;9969530;29;20230;-74
2023/05/25 22:20:40;;;;;;;17.00;4.82;;;;;;;;;;9968787;29;20235;-76
2023/05/25 22:26:03;;;;;;;16.02;4.45;;;;;;;;;;9968762;29;20198;-84
2023/05/25 22:31:25;;;;;;;13.88;4.43;;;;;;;;;;9969124;29;20225;-75
2023/05/25 22:36:47;;;;;;;11.02;3.85;;;;;;;;;;9967921;29;20210;-75
2023/05/25 22:42:08;;;;;;;15.52;4.95;;;;;;;;;;9968290;29;20228;-75
2023/05/25 22:47:30;;;;;;;14.82;3.95;;;;;;;;;;9970572;29;20259;-75
2023/05/25 22:52:51;;;;;;;14.70;4.43;;;;;;;;;;9967782;29;20239;-76
2023/05/25 22:58:13;;;;;;;11.40;4.25;;;;;;;;;;9985820;29;20447;-74
2023/05/25 23:03:34;;;;;;;19.13;4.63;;;;;;;;;;9990217;29;20226;-75
2023/05/25 23:08:56;;;;;;;14.35;4.13;;;;;;;;;;9998097;29;20384;-77
2023/05/25 23:14:19;;;;;;;13.70;3.60;;;;;;;;;;9966187;29;20204;-75
2023/05/25 23:19:40;;;;;;;12.40;4.28;;;;;;;;;;9970007;29;20211;-73
2023/05/25 23:25:02;;;;;;;16.13;4.55;;;;;;;;;;9966889;29;20216;-76
2023/05/25 23:30:23;;;;;;;11.13;3.70;;;;;;;;;;9966374;29;20215;-74
2023/05/25 23:35:45;;;;;;;14.35;4.70;;;;;;;;;;9966337;29;20261;-76
2023/05/25 23:41:06;;;;;;;17.80;4.25;;;;;;;;;;9969302;29;20235;-75
2023/05/25 23:46:30;;;;;;;14.25;4.30;;;;;;;;;;9966427;29;20438;-77
2023/05/25 23:51:51;;;;;;;8.48;3.63;;;;;;;;;;9952416;29;20254;-78
2023/05/25 23:57:13;;;;;;;15.70;4.13;;;;;;;;;;9981324;29;20213;-75
